Alexandria, LA (71301)

5:10 AM CDT on July 28, 2016 (GMT -0500)
Charles Place | | Change Station

Elev 102 ft 31.28 °N, 92.49 °W | Updated 4 minutes ago

Mostly Cloudy
Mostly Cloudy
76.7 °F
Feels Like 77 °F
N
0.0
Wind Variable Wind from South
Gusts 4.0 mph

Today
High -- | Low -- °F
--% Chance of Precip.
Yesterday
High -- | Low -- °F
Precip. -- in
Pressure 29.99 in
Visibility 9.0 miles
Clouds Mostly Cloudy 7000 ft
Heat Index 77 °F
Dew Point 75 °F
Humidity 94%
Rainfall 0.00 in
Snow Depth Not available.
6:24 AM 8:07 PM
Waning Crescent, 33% visible
METAR KAEX 280953Z 14004KT 9SM BKN070 24/23 A2998 RMK AO2 SLP156 T02390233
Pressure 29.99 in
Visibility 9.0 miles
Clouds Mostly Cloudy 7000 ft
Heat Index 77 °F
Dew Point 75 °F
Humidity 94%
Rainfall 0.00 in
Snow Depth Not available.
6:24 AM 8:07 PM
Waning Crescent, 33% visible
METAR KAEX 280953Z 14004KT 9SM BKN070 24/23 A2998 RMK AO2 SLP156 T02390233

10-Day Weather Forecast

Almanac

Astronomy

Jul. 28, 2016 Rise Set
Actual Time
Civil Twilight
Nautical Twilight
Astronomical Twilight
Moon
Length of Visible Light
Length of Day
Tomorrow will be .
, % of the Moon is Illuminated

Today's Extremes

State Highs State Lows

Community

WunderPhotos

Upload Photos

1,928,070 photos uploaded!

WunderBlog® & News

Nearby

Air Quality

  Air Quality AQ Index Pollutant
Not available.

Snow Depth

Station Depth Elevation

Earthquake Activity

City Distance Mag. Time & Date
Minimum magnitude displayed is 2.5.

Coastal Water Temperatures

Place Temperature

Stations

Nearby Weather Stations

Station Location Temp. Windchill Dew Point Humidity Wind Precip. Elev Updated Type
                   

Watches & Warnings

There are currently no watches in effect.